アピア の空港の天気 - METARとTAF

ファレオロ国際空港(サモア) ( NSFA / APW ) - サモア アピア
飛行場実況気象(Metar)
観測時間12/14 20:00 WSDT (12/14 06:00 UTC)
風向・風速東 4m/s
視程10km以上
天気現象
全天の4割程度の雲 雲底高度 670m
気温28℃
湿度74%
気圧1009hPa
METARNSFA 140600Z 08008KT 9999 SCT022 28/23 Q1009
過去の天気等 Google飛行場航空写真 Wunderground天気予報

過去48時間のMETAR

飛行場予報(TAF)
発表時間: 12/14 19:13 WSDT (12/14 05:13 UTC)
予報対象時間: 14日20時 WSDT ~ 15日20時 WSDT
風向・風速東 4m/s
視程10km以上
全天の4割程度の雲 雲底高度 610m
全天の4割程度の雲 雲底高度 1370m
15日5時 WSDT ~ 15日10時 WSDT に 確率 30% で一時的に
視程5000m
天気現象雷雨
少しの積乱雲 雲底高度 520m
15日14時 WSDT ~ 15日20時 WSDT に 確率 30% で一時的に
視程5000m
天気現象雷雨
少しの積乱雲 雲底高度 520m
TAF NSFA 140513Z 1406/1506 08008KT 9999 SCT020 SCT045
PROB30 TEMPO 1415/1420 5000 TSRA FEW017CB
PROB30 TEMPO 1500/1506 5000 TSRA FEW017CB